This is the latest recevied weather packets stored in our database for station/object KF7U. If no packets are shown the sender has not sent any weather packets the latest 1 day(s).
| Time | Temp. | Humidity | Pressure | Rain* | Wind** | Luminosity | Snow |
|---|---|---|---|---|---|---|---|
| 1778075555 | 14.44° C | 59% | 1014.2 hPa | 0 mm | - | 84 W/m² | - |
| 1778074955 | 12.78° C | 71% | 1013.9 hPa | 0 mm | - | 63 W/m² | - |
| 1778069856 | 11.11° C | 73% | 1012.9 hPa | 0 mm | - | 0 W/m² | - |
| 1778069555 | 11.67° C | 73% | 1012.9 hPa | 0 mm | - | 0 W/m² | - |
| 1778068655 | 11.67° C | 72% | 1012.9 hPa | 0 mm | - | 0 W/m² | - |
| 1778068055 | 11.67° C | 71% | 1012.9 hPa | 0 mm | - | 0 W/m² | - |
| 1778066856 | 12.22° C | 67% | 1012.9 hPa | 0 mm | - | 0 W/m² | - |
| 1778066555 | 12.22° C | 66% | 1012.9 hPa | 0 mm | - | 0 W/m² | - |
| 1778066254 | 12.22° C | 65% | 1012.9 hPa | 0 mm | - | 0 W/m² | - |
| 1778065957 | 12.22° C | 65% | 1012.9 hPa | 0 mm | - | 0 W/m² | - |
| 1778065355 | 12.78° C | 64% | 1012.5 hPa | 0 mm | - | 0 W/m² | - |
| 1778065055 | 12.78° C | 63% | 1012.5 hPa | 0 mm | - | 0 W/m² | - |
| 1778064454 | 12.78° C | 63% | 1012.5 hPa | 0 mm | - | 0 W/m² | - |
| 1778064156 | 12.78° C | 62% | 1012.5 hPa | 0 mm | - | 0 W/m² | - |
| 1778063556 | 12.78° C | 62% | 1012.5 hPa | 0 mm | - | 0 W/m² | - |
| 1778063255 | 12.78° C | 62% | 1012.5 hPa | 0 mm | - | 0 W/m² | - |
| 1778062955 | 12.78° C | 62% | 1012.5 hPa | 0 mm | - | 0 W/m² | - |
| 1778062657 | 13.33° C | 61% | 1012.2 hPa | 0 mm | - | 0 W/m² | - |
| 1778060855 | 13.89° C | 57% | 1012.2 hPa | 0 mm | - | 0 W/m² | - |
| 1778060555 | 13.89° C | 55% | 1012.2 hPa | 0 mm | - | 0 W/m² | - |
| 1778060254 | 14.44° C | 54% | 1012.2 hPa | 0 mm | - | 0 W/m² | - |
| 1778059955 | 14.44° C | 53% | 1012.2 hPa | 0 mm | - | 0 W/m² | - |
| 1778059655 | 14.44° C | 52% | 1012.2 hPa | 0 mm | - | 0 W/m² | - |
| 1778059055 | 14.44° C | 52% | 1012.2 hPa | 0 mm | - | 0 W/m² | - |
| 1778058756 | 14.44° C | 53% | 1012.2 hPa | 0 mm | - | 0 W/m² | - |
* Rain latest hour (hover to see other rain measurements)
** Current wind speed in m/s (hover to see current wind gust speed)